Terminal Aerodrome Forecast
Issued by NWS

Home | Current Version | Previous Version | Text Only | Print | Product List | Glossary On
Versions: 1 2 3 4 5 6 7 8 9 10 11 12
742
FTUS45 KABQ 062325
TAFROW
TAF
KROW 062325Z 0700/0724 17009KT P6SM SKC
     FM070200 24006KT P6SM SKC
     FM071200 33005KT P6SM SKC
     FM071800 03007KT P6SM SKC=

USA.gov is the U.S. government's official web portal to all federal, state and local government web resources and services.